33N

Delaware Airpark

Dover/Cheswold, Delaware, USA
METAR K33N 172315Z AUTO 00000KT 10SM BKN038 03/01 A3029 RMK A01
Observed Flight Rules
Nov-17 @ 23:15 UTC (22 minutes ago) Visual Flight Rules
Visibility Clouds
10 miles
  • Broken at 3,800' AGL
Temperatures Readings
Current 3°C / 37°F
Dewpoint 1°C / 34°F
Humidity 87%
Altimeter 30.29" Hg
Pressure 1026 hPa
METAR K33N 172315Z AUTO 00000KT 10SM BKN038 03/01 A3029 RMK A01
Observed Flight Rules
Nov-17 @ 23:15 UTC
(22 minutes ago)
VFR
Clouds
  • Broken at 3,800' AGL
Temperature Dewpoint
3°C / 37°F 1°C / 34°F
Humidity Altimeter Pressure
87% 30.29" Hg 1026 hPa